CheckWX is a tool to help pilots better visualize weather data.  It is not intended as a substitute for an official pre-flight weather briefing.

07:00:31 UTC

KDLS METAR
Columbia Gorge Regional / The Dalles Municipal Airport
The Dalles, Oregon, USA
Current

1 hour ago

KDLS 310553Z AUTO 31006KT 10SM BKN050 OVC065 05/03 A2997 RMK AO2 SLP149 60005 T00500028 10089 20050 58002
Observed
Mar-31 @ 05:53 UTC
Wind
  • 310° at 6 KTS
Visibility
10 SM
Flight Rules
VFR
Cloud Levels
  • Broken at 5,000' AGL
  • Overcast at 6,500' AGL
Temperature
C / 41°F
Dewpoint
C / 37°F
Humidity
87%
Altimeter
29.97" Hg
Pressure
1014.92 hPa
Previous

2 hours ago

KDLS 310453Z AUTO 32008KT 10SM BKN039 OVC047 06/03 A2997 RMK AO2 RAE04 SLP151 P0001 T00560033
Observed
Mar-31 @ 04:53 UTC
Wind
  • 320° at 8 KTS
Visibility
10 SM
Flight Rules
VFR
Cloud Levels
  • Broken at 3,900' AGL
  • Overcast at 4,700' AGL
Temperature
C / 43°F
Dewpoint
C / 37°F
Humidity
81%
Altimeter
29.97" Hg
Pressure
1014.92 hPa
Current Rain
0.01"
Previous

4 hours ago

KDLS 310253Z AUTO 33005KT 10SM -RA OVC038 07/04 A2997 RMK AO2 RAB13 SLP151 P0001 60002 T00670039 53003
Observed
Mar-31 @ 02:53 UTC
Wind
  • 330° at 5 KTS
Visibility
10 SM
Flight Rules
VFR
Conditions
Light Rain
Cloud Levels
  • Overcast at 3,800' AGL
Temperature
C / 45°F
Dewpoint
C / 39°F
Humidity
81%
Altimeter
29.97" Hg
Pressure
1014.92 hPa
Current Rain
0.01"